Time;durP1;ratioP1;P1;durP2;ratioP2;P2;SDS_P1;SDS_P2;PMS_P1;PMS_P2;Temp;Humidity;BMP_temperature;BMP_pressure;BME280_temperature;BME280_humidity;BME280_pressure;Samples;Min_cycle;Max_cycle;Signal;HPM_P1;HPM_P2
2022/01/25 00:28:19;;;;;;;55.57;27.43;;;;;;;1.79;100.00;101943.38;10548917;28;20318;-64
2022/01/25 00:33:22;;;;;;;61.93;29.93;;;;;;;1.65;100.00;101947.78;10545795;28;20536;-65
2022/01/25 00:38:25;;;;;;;57.80;26.80;;;;;;;1.77;100.00;101943.28;10545524;28;20594;-65
2022/01/25 00:43:31;;;;;;;75.23;33.87;;;;;;;1.71;100.00;101934.44;10545233;28;20223;-68
2022/01/25 00:48:43;;;;;;;48.00;24.63;;;;;;;1.96;100.00;101943.41;10544993;28;20219;-66
2022/01/25 00:53:57;;;;;;;59.07;27.10;;;;;;;2.06;100.00;101929.38;10544973;28;20219;-65
2022/01/25 00:59:05;;;;;;;53.03;24.33;;;;;;;2.11;100.00;101921.13;10543893;28;20225;-67
2022/01/25 01:04:09;;;;;;;55.83;27.33;;;;;;;1.81;100.00;101924.72;10544684;28;20326;-65
2022/01/25 01:09:12;;;;;;;47.27;23.53;;;;;;;1.78;100.00;101924.56;10544013;28;20368;-65
2022/01/25 01:14:26;;;;;;;49.47;23.07;;;;;;;2.00;100.00;101919.69;10543960;28;20656;-69
2022/01/25 01:30:27;;;;;;;41.40;21.67;;;;;;;1.98;100.00;101893.19;10501763;28;20761;-67
2022/01/25 01:35:48;;;;;;;45.07;21.87;;;;;;;1.96;100.00;101892.22;10501251;28;20306;-64
2022/01/25 01:41:06;;;;;;;51.13;24.23;;;;;;;1.95;100.00;101884.47;10501088;28;20544;-65
2022/01/25 01:46:28;;;;;;;56.37;25.30;;;;;;;2.09;100.00;101883.41;10501006;28;20220;-68
2022/01/25 01:51:38;;;;;;;53.80;23.90;;;;;;;1.99;100.00;101879.56;10500498;28;20224;-65
2022/01/25 01:56:43;;;;;;;59.47;25.00;;;;;;;2.07;100.00;101867.13;10500611;28;20650;-67
2022/01/25 02:01:48;;;;;;;54.50;24.77;;;;;;;2.03;100.00;101858.44;10500095;28;20306;-70
2022/01/25 02:06:52;;;;;;;50.93;23.23;;;;;;;1.99;100.00;101856.50;10499940;28;20216;-66
2022/01/25 02:11:56;;;;;;;59.83;24.53;;;;;;;2.06;100.00;101852.56;10498988;28;20751;-68
2022/01/25 02:17:09;;;;;;;56.83;23.87;;;;;;;2.08;100.00;101856.06;10515786;28;20211;-65
2022/01/25 02:22:30;;;;;;;61.10;23.90;;;;;;;2.01;100.00;101859.16;10541557;28;20553;-67
2022/01/25 02:27:33;;;;;;;51.87;23.53;;;;;;;2.03;100.00;101845.63;10540948;28;20223;-69
2022/01/25 02:32:37;;;;;;;45.60;20.37;;;;;;;2.12;100.00;101832.38;10540778;28;20222;-67
2022/01/25 02:37:41;;;;;;;45.87;19.97;;;;;;;2.12;100.00;101817.03;10541108;28;20265;-66
2022/01/25 02:42:44;;;;;;;43.80;20.40;;;;;;;1.97;100.00;101827.41;10540500;28;20522;-65
2022/01/25 02:53:10;;;;;;;40.33;19.57;;;;;;;1.96;100.00;101824.78;10540360;28;20526;-66
2022/01/25 02:58:13;;;;;;;39.87;17.90;;;;;;;2.07;100.00;101832.16;10540055;28;20215;-66
2022/01/25 03:03:16;;;;;;;46.53;20.27;;;;;;;1.98;100.00;101829.19;10540050;28;20732;-65
2022/01/25 03:08:21;;;;;;;37.17;16.43;;;;;;;1.94;100.00;101817.03;10539531;28;20560;-67
2022/01/25 03:13:30;;;;;;;39.20;18.20;;;;;;;1.98;100.00;101802.69;10539552;28;20257;-65
2022/01/25 03:18:44;;;;;;;37.40;17.03;;;;;;;2.03;100.00;101789.31;10510135;28;20246;-66
2022/01/25 03:23:50;;;;;;;39.40;16.80;;;;;;;2.05;100.00;101786.81;10497317;28;20310;-67
2022/01/25 03:28:54;;;;;;;37.20;17.43;;;;;;;2.05;100.00;101768.88;10497426;28;20230;-69
2022/01/25 03:33:58;;;;;;;45.17;19.27;;;;;;;2.05;100.00;101769.75;10497607;28;20266;-66
2022/01/25 03:39:06;;;;;;;44.67;17.63;;;;;;;2.04;100.00;101778.25;10497076;28;20224;-66
2022/01/25 03:44:09;;;;;;;40.37;19.60;;;;;;;2.02;100.00;101768.75;10497462;28;20254;-66
2022/01/25 03:54:34;;;;;;;36.90;17.83;;;;;;;1.94;100.00;101760.72;10496925;28;20216;-66
2022/01/25 03:59:38;;;;;;;34.80;15.60;;;;;;;2.01;100.00;101759.31;10497623;28;20227;-69
2022/01/25 04:04:42;;;;;;;36.33;16.87;;;;;;;2.13;100.00;101747.94;10499966;28;20212;-71
2022/01/25 04:09:46;;;;;;;37.83;15.40;;;;;;;2.12;100.00;101758.13;10499861;28;20219;-66
2022/01/25 04:14:49;;;;;;;34.37;14.63;;;;;;;2.20;100.00;101733.75;10499770;28;20230;-69
2022/01/25 04:20:15;;;;;;;29.60;13.97;;;;;;;2.21;100.00;101715.88;10499417;28;20570;-66
2022/01/25 04:25:20;;;;;;;35.37;14.33;;;;;;;2.27;100.00;101700.81;10499479;28;20258;-66
2022/01/25 04:30:23;;;;;;;31.57;14.47;;;;;;;2.40;100.00;101707.31;10499520;28;20558;-67
2022/01/25 04:35:43;;;;;;;33.00;14.47;;;;;;;2.23;100.00;101713.38;10504025;28;20226;-67
2022/01/25 04:51:44;;;;;;;34.93;14.10;;;;;;;2.33;100.00;101685.69;10506377;28;20224;-69
2022/01/25 04:56:56;;;;;;;33.70;13.13;;;;;;;2.38;100.00;101684.19;10506213;28;20229;-67
2022/01/25 05:02:05;;;;;;;33.80;12.97;;;;;;;2.38;100.00;101667.09;10505936;28;20543;-70
2022/01/25 05:07:22;;;;;;;34.60;17.00;;;;;;;2.15;100.00;101666.97;10506014;28;20713;-70
2022/01/25 05:12:37;;;;;;;35.73;13.27;;;;;;;2.35;100.00;101673.81;10505404;28;20322;-66
2022/01/25 05:18:09;;;;;;;32.07;13.07;;;;;;;2.32;100.00;101666.03;10505311;28;20314;-68
2022/01/25 05:23:12;;;;;;;29.83;13.33;;;;;;;2.23;100.00;101657.94;10505815;28;20216;-66
2022/01/25 05:28:16;;;;;;;30.57;12.57;;;;;;;2.25;100.00;101676.81;10504493;28;20224;-69
2022/01/25 05:33:19;;;;;;;35.70;17.47;;;;;;;2.29;100.00;101668.47;10504681;28;20538;-64
2022/01/25 05:38:23;;;;;;;33.50;13.83;;;;;;;2.35;100.00;101658.47;10505721;28;20216;-67
2022/01/25 05:48:48;;;;;;;33.20;15.10;;;;;;;2.51;100.00;101669.38;10497345;28;20242;-65
2022/01/25 05:53:51;;;;;;;34.20;14.70;;;;;;;2.46;100.00;101664.06;10503602;28;20212;-69
2022/01/25 05:58:56;;;;;;;37.67;16.33;;;;;;;2.29;100.00;101655.66;10503506;28;20216;-65
2022/01/25 06:03:59;;;;;;;35.77;15.33;;;;;;;2.43;100.00;101660.47;10503692;28;20216;-65
2022/01/25 06:09:02;;;;;;;34.33;14.60;;;;;;;2.52;100.00;101659.19;10503087;28;20224;-67
2022/01/25 06:14:07;;;;;;;38.17;15.73;;;;;;;2.41;100.00;101645.06;10502583;28;20236;-66
2022/01/25 06:19:10;;;;;;;35.83;15.83;;;;;;;2.52;100.00;101645.50;10502425;28;20246;-65
2022/01/25 06:24:13;;;;;;;38.07;15.87;;;;;;;2.54;100.00;101642.19;10502247;28;20212;-68
2022/01/25 06:29:19;;;;;;;34.07;14.07;;;;;;;2.57;100.00;101638.88;10502287;28;20224;-68
2022/01/25 06:34:22;;;;;;;31.30;15.00;;;;;;;2.54;100.00;101629.38;10502046;28;20277;-64
2022/01/25 06:39:25;;;;;;;37.50;14.33;;;;;;;2.61;100.00;101623.69;10501910;28;20263;-67
2022/01/25 06:44:32;;;;;;;26.33;12.33;;;;;;;2.63;100.00;101619.53;10501338;28;20555;-65
2022/01/25 06:49:36;;;;;;;32.97;14.53;;;;;;;2.59;100.00;101606.53;10498701;28;20273;-68
2022/01/25 06:54:44;;;;;;;30.70;14.07;;;;;;;2.50;100.00;101616.38;10142424;28;10001450;-65
2022/01/25 06:59:49;;;;;;;28.33;12.70;;;;;;;2.55;100.00;101610.66;10492240;28;20227;-65
2022/01/25 07:04:52;;;;;;;31.37;12.27;;;;;;;2.61;100.00;101620.25;10497670;28;20241;-65
2022/01/25 07:09:56;;;;;;;31.97;14.40;;;;;;;2.51;100.00;101625.81;10497567;28;20224;-64
2022/01/25 07:15:00;;;;;;;28.50;13.17;;;;;;;2.53;100.00;101622.50;10497426;28;20851;-69
2022/01/25 07:20:06;;;;;;;34.73;13.80;;;;;;;2.62;100.00;101627.16;10497122;28;20236;-67
2022/01/25 07:25:12;;;;;;;34.57;15.00;;;;;;;2.65;100.00;101619.59;10496962;28;20572;-67
2022/01/25 07:30:16;;;;;;;33.20;15.23;;;;;;;2.59;100.00;101612.50;10496909;28;20323;-64
2022/01/25 07:35:19;;;;;;;30.90;13.37;;;;;;;2.58;100.00;101615.00;10497265;28;20222;-66
2022/01/25 07:40:23;;;;;;;35.10;14.60;;;;;;;2.66;100.00;101604.25;10496619;28;20679;-64
2022/01/25 07:45:35;;;;;;;30.70;14.07;;;;;;;2.55;100.00;101600.41;10496797;28;20220;-66
2022/01/25 07:50:44;;;;;;;34.40;16.90;;;;;;;2.64;100.00;101585.38;10509510;28;20649;-66
2022/01/25 07:55:47;;;;;;;33.60;14.90;;;;;;;2.69;100.00;101588.16;10538843;28;20338;-64
2022/01/25 08:00:54;;;;;;;27.37;13.33;;;;;;;2.87;100.00;101579.50;10513912;28;20234;-67
2022/01/25 08:05:58;;;;;;;34.17;14.40;;;;;;;2.86;100.00;101593.16;10500107;28;20803;-64
2022/01/25 08:11:15;;;;;;;24.60;12.57;;;;;;;2.86;100.00;101587.16;10505465;28;20710;-65
2022/01/25 08:16:29;;;;;;;31.50;14.60;;;;;;;2.80;100.00;101581.75;10500757;28;20232;-67
2022/01/25 08:21:49;;;;;;;26.47;12.63;;;;;;;2.82;100.00;101577.56;10504163;28;20250;-68
2022/01/25 08:27:20;;;;;;;33.33;15.80;;;;;;;2.81;100.00;101560.47;10498449;28;20315;-66
2022/01/25 08:32:38;;;;;;;27.50;13.80;;;;;;;2.66;100.00;101562.41;10400481;28;20235;-66
2022/01/25 08:38:03;;;;;;;24.97;13.87;;;;;;;2.83;100.00;101571.66;10504056;28;20323;-66
2022/01/25 08:43:20;;;;;;;26.47;14.00;;;;;;;2.61;100.00;101553.63;10502207;28;20705;-64
2022/01/25 08:48:56;;;;;;;25.03;12.97;;;;;;;2.64;100.00;101553.78;10501854;28;20311;-64
2022/01/25 08:54:28;;;;;;;26.97;12.57;;;;;;;2.82;100.00;101549.38;10542037;28;20667;-65
2022/01/25 08:59:51;;;;;;;20.37;11.23;;;;;;;2.71;100.00;101546.38;10533284;28;20199;-66
2022/01/25 09:04:55;;;;;;;22.50;11.30;;;;;;;2.85;100.00;101544.34;10502241;28;20188;-67
2022/01/25 09:09:59;;;;;;;22.80;12.70;;;;;;;2.87;100.00;101543.63;10502033;28;20532;-59
2022/01/25 09:15:02;;;;;;;85.93;43.77;;;;;;;2.86;100.00;101535.88;10502659;28;20278;-69
2022/01/25 09:20:08;;;;;;;18.60;10.73;;;;;;;2.93;100.00;101518.25;10500864;28;20231;-67
2022/01/25 09:25:13;;;;;;;26.73;13.53;;;;;;;2.95;100.00;101520.88;10501930;28;20702;-65
2022/01/25 09:30:20;;;;;;;22.13;11.87;;;;;;;3.03;100.00;101533.16;10501149;28;20234;-66
2022/01/25 09:35:25;;;;;;;25.47;11.57;;;;;;;3.07;100.00;101531.59;10502185;28;20196;-64
2022/01/25 09:40:29;;;;;;;24.30;11.10;;;;;;;3.11;100.00;101536.88;10503905;28;20656;-65
2022/01/25 09:45:33;;;;;;;22.80;11.37;;;;;;;3.15;100.00;101535.31;10504204;28;20689;-64
2022/01/25 09:50:39;;;;;;;24.47;10.87;;;;;;;3.17;100.00;101534.56;10509126;28;20208;-65
2022/01/25 09:55:45;;;;;;;23.77;11.77;;;;;;;3.14;100.00;101533.59;10542559;28;20298;-62
2022/01/25 10:00:55;;;;;;;25.57;12.13;;;;;;;3.24;100.00;101521.16;10530443;28;20220;-64
2022/01/25 10:06:02;;;;;;;23.20;13.13;;;;;;;2.94;100.00;101513.97;10500578;28;20200;-64
2022/01/25 10:11:07;;;;;;;24.13;12.47;;;;;;;3.08;100.00;101515.38;10499670;28;20527;-64
2022/01/25 10:16:13;;;;;;;23.43;12.83;;;;;;;3.26;100.00;101508.41;10499556;28;20319;-67
2022/01/25 10:21:21;;;;;;;22.27;11.93;;;;;;;3.30;100.00;101503.44;10499237;28;20244;-66
2022/01/25 10:26:24;;;;;;;22.70;11.53;;;;;;;3.25;100.00;101501.50;10499073;28;20542;-66
2022/01/25 10:31:49;;;;;;;19.90;11.13;;;;;;;3.41;100.00;101499.56;10498144;28;20230;-65
2022/01/25 10:36:56;;;;;;;20.37;10.57;;;;;;;3.54;100.00;101501.75;10499061;28;20200;-67
2022/01/25 10:42:05;;;;;;;20.30;10.13;;;;;;;3.59;100.00;101513.88;10498294;28;20188;-64
2022/01/25 10:47:12;;;;;;;16.30;9.13;;;;;;;3.61;100.00;101502.00;10498727;28;20633;-65
2022/01/25 10:52:25;;;;;;;20.53;9.93;;;;;;;3.64;100.00;101490.16;10501042;28;20212;-64
2022/01/25 10:57:28;;;;;;;16.63;8.87;;;;;;;3.76;100.00;101490.56;10498160;28;20307;-62
2022/01/25 11:02:52;;;;;;;17.65;10.43;;;;;;;3.83;100.00;101491.66;10495196;28;20454;-63
2022/01/25 11:08:09;;;;;;;14.77;7.30;;;;;;;3.77;100.00;101478.59;10497693;28;20578;-65
2022/01/25 11:13:33;;;;;;;16.17;10.23;;;;;;;3.79;100.00;101476.97;10494847;28;20415;-66
2022/01/25 11:18:37;;;;;;;14.20;9.93;;;;;;;3.87;100.00;101470.38;10494746;28;20418;-65
2022/01/25 11:23:44;;;;;;;12.73;7.47;;;;;;;3.90;100.00;101479.06;10496971;28;20208;-65
2022/01/25 11:28:48;;;;;;;13.20;7.03;;;;;;;4.03;100.00;101472.66;10497988;28;20212;-63
2022/01/25 11:33:53;;;;;;;16.90;9.98;;;;;;;3.99;100.00;101460.53;10494113;28;20490;-63
2022/01/25 11:38:58;;;;;;;13.43;9.20;;;;;;;4.02;100.00;101464.06;10494970;28;20386;-65
2022/01/25 11:44:10;;;;;;;14.73;8.48;;;;;;;4.06;100.00;101478.78;10499085;28;20859;-65
2022/01/25 11:49:16;;;;;;;12.70;8.15;;;;;;;4.05;100.00;101453.94;10502803;28;20497;-65
2022/01/25 11:54:21;;;;;;;11.85;7.30;;;;;;;4.18;100.00;101463.78;10513490;28;20410;-64
2022/01/25 11:59:40;;;;;;;11.15;7.25;;;;;;;4.20;100.00;101451.84;10501798;28;20385;-65
2022/01/25 12:04:51;;;;;;;11.30;7.50;;;;;;;4.19;100.00;101454.38;10500681;28;20406;-65
2022/01/25 12:10:13;;;;;;;11.27;6.72;;;;;;;4.29;100.00;101441.00;10502120;28;20392;-67
2022/01/25 12:15:21;;;;;;;12.40;7.30;;;;;;;4.37;100.00;101432.72;10501480;28;20424;-66
2022/01/25 12:20:26;;;;;;;9.68;6.43;;;;;;;4.35;100.00;101441.19;10501690;28;20413;-65
2022/01/25 12:25:34;;;;;;;8.93;5.23;;;;;;;4.31;100.00;101429.97;10504130;28;20271;-69
2022/01/25 12:30:40;;;;;;;8.67;5.27;;;;;;;4.32;100.00;101431.69;10504050;28;20388;-67
2022/01/25 12:35:48;;;;;;;11.53;5.27;;;;;;;4.35;100.00;101430.91;10504031;28;20633;-68
2022/01/25 12:41:01;;;;;;;9.43;5.10;;;;;;;4.35;100.00;101416.38;10506719;28;20221;-65
2022/01/25 12:46:08;;;;;;;12.47;5.00;;;;;;;4.25;100.00;101422.06;10506245;28;20531;-68
2022/01/25 12:51:13;;;;;;;11.20;5.27;;;;;;;4.23;100.00;101420.25;10506139;28;20296;-69
2022/01/25 12:56:21;;;;;;;7.80;4.63;;;;;;;4.22;100.00;101418.50;10504709;28;20653;-62
2022/01/25 13:01:26;;;;;;;8.10;4.67;;;;;;;4.12;100.00;101417.34;10505953;28;20265;-68
2022/01/25 13:06:32;;;;;;;12.37;5.87;;;;;;;4.16;100.00;101415.75;10505454;28;20606;-64
2022/01/25 13:11:48;;;;;;;7.83;4.23;;;;;;;4.21;100.00;101402.22;10505802;28;20220;-66
2022/01/25 13:16:53;;;;;;;9.00;3.87;;;;;;;4.40;100.00;101407.09;10504955;28;20302;-64
2022/01/25 13:22:00;;;;;;;8.73;4.50;;;;;;;4.26;100.00;101405.78;10505460;28;20307;-69
2022/01/25 13:27:13;;;;;;;8.07;3.83;;;;;;;4.25;100.00;101403.19;10504986;28;20230;-66
2022/01/25 13:32:22;;;;;;;10.23;4.60;;;;;;;4.37;100.00;101401.00;10504838;28;20291;-68
2022/01/25 13:37:29;;;;;;;9.87;5.57;;;;;;;4.38;100.00;101395.91;10504052;28;20212;-66
2022/01/25 13:42:42;;;;;;;8.63;5.17;;;;;;;4.46;100.00;101399.59;10504073;28;20353;-67
2022/01/25 13:47:56;;;;;;;9.83;5.33;;;;;;;4.35;100.00;101394.94;10503999;28;20235;-65
2022/01/25 13:52:59;;;;;;;9.27;5.03;;;;;;;4.32;100.00;101399.97;10503961;28;20220;-67
2022/01/25 13:58:19;;;;;;;9.93;5.13;;;;;;;4.30;100.00;101410.22;10503540;28;20298;-63
2022/01/25 14:03:27;;;;;;;10.50;5.30;;;;;;;4.25;100.00;101403.19;10502996;28;20301;-65
2022/01/25 14:08:35;;;;;;;10.50;5.87;;;;;;;4.02;100.00;101404.16;10502909;28;20552;-66
2022/01/25 14:24:30;;;;;;;10.87;6.70;;;;;;;4.11;100.00;101407.88;10501914;28;20216;-67
2022/01/25 14:29:35;;;;;;;45.23;26.07;;;;;;;4.20;100.00;101397.91;10501979;28;20228;-67
2022/01/25 14:34:38;;;;;;;13.53;6.20;;;;;;;4.18;100.00;101402.13;10501571;28;20223;-67
2022/01/25 14:39:43;;;;;;;10.13;5.87;;;;;;;4.16;100.00;101408.91;10502278;28;20212;-65
2022/01/25 14:44:47;;;;;;;12.17;5.70;;;;;;;4.14;100.00;101415.69;10501234;28;20216;-65
2022/01/25 14:49:58;;;;;;;11.17;6.07;;;;;;;4.14;100.00;101409.69;10501420;28;20218;-65
2022/01/25 14:55:02;;;;;;;17.03;6.43;;;;;;;4.14;100.00;101409.69;10500869;28;20220;-68
2022/01/25 15:00:09;;;;;;;9.90;5.77;;;;;;;4.21;100.00;101416.78;10501377;28;20227;-68
2022/01/25 15:05:12;;;;;;;11.20;6.07;;;;;;;4.05;100.00;101423.09;10501648;28;20215;-67
2022/01/25 15:10:19;;;;;;;12.20;6.60;;;;;;;3.99;100.00;101417.75;10500789;28;20607;-67
2022/01/25 15:15:27;;;;;;;31.23;15.47;;;;;;;4.07;100.00;101429.13;10500569;28;20224;-64
2022/01/25 15:20:30;;;;;;;12.77;6.93;;;;;;;4.05;100.00;101423.09;10500021;28;20238;-67
2022/01/25 15:25:35;;;;;;;12.53;7.47;;;;;;;4.11;100.00;101423.28;10500376;28;20274;-65
2022/01/25 15:30:39;;;;;;;12.40;7.23;;;;;;;4.13;100.00;101429.34;10500405;28;20218;-67
2022/01/25 15:35:45;;;;;;;12.60;7.13;;;;;;;4.13;100.00;101424.22;10500072;28;20265;-66
2022/01/25 15:40:49;;;;;;;11.70;6.97;;;;;;;4.14;100.00;101413.09;10500045;28;20216;-64
2022/01/25 15:46:02;;;;;;;15.83;8.57;;;;;;;4.05;100.00;101424.78;10488847;28;20221;-64
2022/01/25 15:51:05;;;;;;;11.77;7.40;;;;;;;4.15;100.00;101420.00;10458518;28;20236;-66
2022/01/25 15:56:09;;;;;;;14.80;8.13;;;;;;;4.18;100.00;101407.25;10473478;28;20299;-65
2022/01/25 16:01:14;;;;;;;130.07;55.93;;;;;;;4.23;100.00;101409.97;10498649;28;20212;-68
2022/01/25 16:06:19;;;;;;;21.80;12.87;;;;;;;4.29;100.00;101416.19;10473865;28;20249;-67
2022/01/25 16:11:25;;;;;;;12.43;7.80;;;;;;;4.22;100.00;101419.38;10498415;28;20680;-63
2022/01/25 16:16:30;;;;;;;14.83;8.10;;;;;;;4.25;100.00;101418.59;10497987;28;20212;-67
2022/01/25 16:21:33;;;;;;;16.13;8.20;;;;;;;4.25;100.00;101424.63;10497702;28;20228;-64
2022/01/25 16:26:37;;;;;;;18.23;8.30;;;;;;;4.23;100.00;101420.25;10497721;28;20192;-64
2022/01/25 16:31:43;;;;;;;13.57;8.77;;;;;;;4.17;100.00;101415.81;10501914;28;20196;-64
2022/01/25 16:36:46;;;;;;;55.13;29.27;;;;;;;4.24;100.00;101424.56;10500229;28;20224;-73
2022/01/25 16:41:49;;;;;;;16.27;8.77;;;;;;;4.27;100.00;101422.09;10506672;28;20192;-68
2022/01/25 16:46:54;;;;;;;15.97;7.80;;;;;;;4.21;100.00;101427.06;10497436;28;20196;-67
2022/01/25 16:51:57;;;;;;;16.35;8.77;;;;;;;4.16;100.00;101421.75;10151869;27;10000362;-67
2022/01/25 16:57:01;;;;;;;18.43;9.23;;;;;;;4.11;100.00;101425.88;10502872;28;20595;-63
2022/01/25 17:02:11;;;;;;;17.57;9.07;;;;;;;4.20;100.00;101421.03;10502650;28;20188;-66
2022/01/25 17:07:14;;;;;;;17.00;8.57;;;;;;;4.20;100.00;101428.75;10502554;28;20275;-67
2022/01/25 17:12:18;;;;;;;16.67;10.37;;;;;;;4.12;100.00;101432.75;10462711;28;20221;-64
2022/01/25 17:17:42;;;;;;;16.30;9.40;;;;;;;4.26;100.00;101428.06;10490433;28;20239;-66
2022/01/25 17:22:46;;;;;;;17.03;8.73;;;;;;;4.27;100.00;101432.38;10467980;28;20196;-65
2022/01/25 17:27:49;;;;;;;20.93;11.23;;;;;;;4.29;100.00;101420.44;10468883;28;20192;-65
2022/01/25 17:32:55;;;;;;;15.90;9.20;;;;;;;4.29;100.00;101420.44;10488446;28;20818;-65
2022/01/25 17:37:58;;;;;;;19.17;10.00;;;;;;;4.27;100.00;101419.53;10463641;28;20275;-65
2022/01/25 17:43:02;;;;;;;18.73;9.17;;;;;;;4.25;100.00;101419.47;10463018;28;20193;-65
2022/01/25 17:48:06;;;;;;;15.83;8.77;;;;;;;4.32;100.00;101421.44;10478339;28;20227;-64
2022/01/25 17:53:11;;;;;;;18.23;10.77;;;;;;;4.24;100.00;101422.00;10509208;28;20299;-67
2022/01/25 17:58:15;;;;;;;18.43;9.27;;;;;;;4.36;100.00;101418.13;10515006;28;20298;-65
2022/01/25 18:03:20;;;;;;;18.33;10.47;;;;;;;4.31;100.00;101429.09;10490504;28;20225;-68
2022/01/25 18:08:24;;;;;;;19.17;10.07;;;;;;;4.35;100.00;101434.34;10458947;28;20246;-63
2022/01/25 18:13:27;;;;;;;20.67;11.00;;;;;;;4.37;100.00;101427.56;10458204;28;20310;-64
2022/01/25 18:18:32;;;;;;;17.70;9.13;;;;;;;4.38;100.00;101429.31;10468168;28;20599;-63
2022/01/25 18:23:43;;;;;;;18.67;10.17;;;;;;;4.38;100.00;101428.47;10498156;28;20224;-64
2022/01/25 18:28:47;;;;;;;19.43;10.83;;;;;;;4.32;100.00;101429.13;10498017;28;20226;-63
2022/01/25 18:33:52;;;;;;;23.97;13.63;;;;;;;4.39;100.00;101430.19;10499164;28;20232;-65
2022/01/25 18:39:00;;;;;;;19.80;10.13;;;;;;;4.37;100.00;101430.16;10499014;28;20216;-63
2022/01/25 18:44:04;;;;;;;18.23;10.90;;;;;;;4.33;100.00;101419.72;10498673;28;20220;-66
2022/01/25 18:49:09;;;;;;;18.30;10.47;;;;;;;4.41;100.00;101415.69;10498072;28;20220;-67
2022/01/25 18:54:13;;;;;;;19.23;9.70;;;;;;;4.32;100.00;101420.53;10530731;28;20223;-62
2022/01/25 18:59:17;;;;;;;21.47;11.37;;;;;;;4.30;100.00;101428.22;10539691;28;20298;-65
2022/01/25 19:04:21;;;;;;;17.87;9.90;;;;;;;4.37;100.00;101413.84;10539638;28;20292;-66
2022/01/25 19:09:25;;;;;;;19.30;11.23;;;;;;;4.35;100.00;101425.78;10539416;28;20298;-66
2022/01/25 19:14:28;;;;;;;19.00;11.23;;;;;;;4.31;100.00;101423.94;10539571;28;20223;-65
2022/01/25 19:19:33;;;;;;;21.97;11.27;;;;;;;4.36;100.00;101420.72;10539407;28;20776;-64
2022/01/25 19:24:36;;;;;;;46.70;23.80;;;;;;;4.16;100.00;101432.03;10539349;28;20250;-62
2022/01/25 19:29:39;;;;;;;26.33;12.17;;;;;;;4.25;100.00;101424.63;10539060;28;20688;-67
2022/01/25 19:34:44;;;;;;;19.50;11.77;;;;;;;4.21;100.00;101422.75;10539126;28;20594;-68
2022/01/25 19:39:49;;;;;;;20.83;11.70;;;;;;;4.23;100.00;101420.25;10538922;28;20227;-62
2022/01/25 19:44:53;;;;;;;23.77;11.73;;;;;;;4.18;100.00;101429.50;10539014;28;20560;-68
2022/01/25 19:49:57;;;;;;;20.07;10.67;;;;;;;4.21;100.00;101417.63;10539041;28;20556;-62
2022/01/25 19:55:07;;;;;;;23.63;12.27;;;;;;;4.29;100.00;101425.59;10497672;28;20216;-65
2022/01/25 20:00:13;;;;;;;20.13;10.93;;;;;;;4.31;100.00;101424.84;10497437;28;20314;-66
2022/01/25 20:05:18;;;;;;;23.43;12.40;;;;;;;4.28;100.00;101427.28;10502036;28;20653;-64
2022/01/25 20:10:22;;;;;;;21.00;11.37;;;;;;;4.23;100.00;101433.97;10504638;28;20226;-64
2022/01/25 20:15:25;;;;;;;21.73;10.97;;;;;;;4.35;100.00;101430.91;10504727;28;20234;-67
2022/01/25 20:20:37;;;;;;;142.40;71.70;;;;;;;4.31;100.00;101423.94;10504172;28;20574;-64
2022/01/25 20:25:47;;;;;;;19.60;11.40;;;;;;;4.22;100.00;101424.53;10504040;28;20220;-57
2022/01/25 20:30:59;;;;;;;20.63;11.17;;;;;;;4.24;100.00;101422.88;10505716;28;20299;-62
2022/01/25 20:36:06;;;;;;;21.47;10.60;;;;;;;4.29;100.00;101429.03;10506875;28;20224;-65
2022/01/25 20:41:10;;;;;;;21.37;11.50;;;;;;;4.35;100.00;101436.03;10506726;28;20307;-65
2022/01/25 20:46:14;;;;;;;22.63;11.40;;;;;;;4.26;100.00;101435.78;10506532;28;20220;-66
2022/01/25 20:51:19;;;;;;;23.00;11.70;;;;;;;4.35;100.00;101436.94;10506204;28;20228;-61
2022/01/25 20:56:23;;;;;;;23.97;12.40;;;;;;;4.39;100.00;101432.75;10507041;28;20223;-66
2022/01/25 21:01:30;;;;;;;22.93;12.13;;;;;;;4.32;100.00;101434.28;10506130;28;20216;-68
2022/01/25 21:06:45;;;;;;;27.40;12.93;;;;;;;4.29;100.00;101433.28;10505828;28;20224;-66
2022/01/25 21:11:51;;;;;;;22.77;12.10;;;;;;;4.26;100.00;101435.78;10506051;28;20215;-66
2022/01/25 21:16:55;;;;;;;26.10;13.80;;;;;;;4.24;100.00;101437.41;10504623;28;20553;-64
2022/01/25 21:22:00;;;;;;;20.13;11.53;;;;;;;4.24;100.00;101432.28;10505124;28;20690;-65
2022/01/25 21:27:03;;;;;;;22.37;12.47;;;;;;;4.24;100.00;101422.88;10505933;28;20216;-64
2022/01/25 21:32:08;;;;;;;24.10;12.57;;;;;;;4.29;100.00;101425.59;10504703;28;20211;-64
2022/01/25 21:37:13;;;;;;;24.07;11.90;;;;;;;4.23;100.00;101421.13;10505087;28;20313;-65
2022/01/25 21:42:17;;;;;;;25.77;12.00;;;;;;;4.25;100.00;101422.06;10504509;28;20216;-66
2022/01/25 21:47:20;;;;;;;22.07;12.37;;;;;;;4.19;100.00;101420.97;10504360;28;20227;-67
2022/01/25 21:52:24;;;;;;;24.03;12.20;;;;;;;4.24;100.00;101422.88;10504178;28;20228;-67
2022/01/25 21:57:28;;;;;;;23.50;12.73;;;;;;;4.20;100.00;101415.91;10504035;28;20223;-66
2022/01/25 22:02:32;;;;;;;23.03;12.73;;;;;;;4.27;100.00;101416.94;10503698;28;20234;-66
2022/01/25 22:07:44;;;;;;;20.50;11.87;;;;;;;4.25;100.00;101413.47;10503241;28;20741;-66
2022/01/25 22:12:51;;;;;;;30.00;12.53;;;;;;;4.23;100.00;101409.97;10503300;28;20227;-67
2022/01/25 22:17:54;;;;;;;23.00;11.43;;;;;;;4.24;100.00;101401.44;10502895;28;20326;-66
2022/01/25 22:23:00;;;;;;;26.43;13.33;;;;;;;4.12;100.00;101414.78;10502662;28;20216;-65
2022/01/25 22:28:04;;;;;;;23.03;12.23;;;;;;;4.11;100.00;101407.88;10501261;28;20224;-65
2022/01/25 22:33:07;;;;;;;22.30;11.90;;;;;;;4.09;100.00;101404.38;10502363;28;20212;-66
2022/01/25 22:38:12;;;;;;;19.40;10.90;;;;;;;4.16;100.00;101397.78;10502237;28;20219;-65
2022/01/25 22:43:21;;;;;;;20.63;10.43;;;;;;;4.15;100.00;101402.03;10501846;28;20668;-68
2022/01/25 22:48:29;;;;;;;21.63;12.03;;;;;;;4.15;100.00;101407.16;10501617;28;20226;-68
2022/01/25 22:53:34;;;;;;;20.97;11.20;;;;;;;4.08;100.00;101399.19;10501797;28;20227;-66
2022/01/25 22:58:37;;;;;;;22.17;10.23;;;;;;;4.09;100.00;101391.53;10501849;28;20212;-68
2022/01/25 23:03:42;;;;;;;20.07;10.73;;;;;;;4.12;100.00;101389.09;10501340;28;20308;-66
2022/01/25 23:08:47;;;;;;;23.53;10.83;;;;;;;4.07;100.00;101390.63;10501588;28;20222;-72
2022/01/25 23:13:56;;;;;;;21.17;10.87;;;;;;;4.07;100.00;101390.63;10501342;28;20557;-65
2022/01/25 23:19:02;;;;;;;20.13;11.20;;;;;;;4.12;100.00;101389.09;10501016;28;20546;-66
2022/01/25 23:24:07;;;;;;;21.97;11.00;;;;;;;4.15;100.00;101388.31;10501219;28;20552;-69
2022/01/25 23:29:15;;;;;;;19.37;11.00;;;;;;;4.05;100.00;101384.59;10500935;28;20543;-68
2022/01/25 23:34:45;;;;;;;22.33;11.43;;;;;;;4.06;100.00;101381.19;10501044;28;20234;-68
2022/01/25 23:39:56;;;;;;;20.53;12.97;;;;;;;4.04;100.00;101375.13;10500147;28;20666;-69
2022/01/25 23:45:02;;;;;;;22.77;12.13;;;;;;;4.07;100.00;101377.78;10500789;28;20223;-66
2022/01/25 23:50:13;;;;;;;22.67;12.50;;;;;;;4.02;100.00;101384.47;10500299;28;20226;-68
